Time;durP1;ratioP1;P1;durP2;ratioP2;P2;SDS_P1;SDS_P2;PMS_P1;PMS_P2;Temp;Humidity;BMP_temperature;BMP_pressure;BME280_temperature;BME280_humidity;BME280_pressure;Samples;Min_cycle;Max_cycle;Signal;HPM_P1;HPM_P2
2021/01/22 00:00:51;;;;;;;60.77;34.17;;;;;;;1.56;79.16;98856.66;120762;1148;104356;-81
2021/01/22 00:06:43;;;;;;;61.80;32.67;;;;;;;1.62;79.00;98854.84;120767;1148;104423;-81
2021/01/22 00:09:10;;;;;;;59.77;32.53;;;;;;;1.64;79.04;98859.95;120756;1148;104249;-81
2021/01/22 00:11:37;;;;;;;65.03;35.20;;;;;;;1.65;79.16;98867.63;120800;1148;104434;-81
2021/01/22 00:14:04;;;;;;;65.70;35.27;;;;;;;1.66;79.24;98850.48;120759;1148;104409;-81
2021/01/22 00:16:32;;;;;;;61.67;33.97;;;;;;;1.68;79.14;98838.45;120868;1148;104375;-81
2021/01/22 00:18:59;;;;;;;56.93;32.43;;;;;;;1.67;78.81;98840.17;120827;1148;104527;-82
2021/01/22 00:21:29;;;;;;;59.53;32.03;;;;;;;1.66;79.28;98841.05;120684;1148;104764;-82
2021/01/22 00:23:58;;;;;;;58.57;32.30;;;;;;;1.66;78.92;98833.34;120832;1150;102610;-82
2021/01/22 00:26:27;;;;;;;58.37;32.27;;;;;;;1.66;78.88;98827.35;120838;1148;104446;-82
2021/01/22 00:28:54;;;;;;;58.60;32.37;;;;;;;1.64;78.80;98824.81;120777;1150;102010;-81
2021/01/22 00:31:21;;;;;;;62.10;32.93;;;;;;;1.64;79.08;98818.83;120797;1148;104396;-81
2021/01/22 00:33:48;;;;;;;56.70;31.42;;;;;;;1.64;78.90;98819.67;120761;1150;104394;-81
2021/01/22 00:36:15;;;;;;;63.07;32.63;;;;;;;1.64;79.17;98818.83;120775;1151;104356;-81
2021/01/22 00:38:42;;;;;;;58.13;31.23;;;;;;;1.64;78.74;98822.25;120757;1150;104453;-81
2021/01/22 00:41:09;;;;;;;58.90;32.17;;;;;;;1.64;79.02;98814.53;120824;1148;104377;-81
2021/01/22 00:43:37;;;;;;;57.57;32.00;;;;;;;1.64;79.07;98824.81;120757;1151;104375;-81
2021/01/22 00:46:05;;;;;;;55.55;31.60;;;;;;;1.63;79.11;98812.84;120789;1150;104429;-81
2021/01/22 00:48:39;;;;;;;54.77;32.00;;;;;;;1.62;78.85;98810.30;120749;1151;104291;-81
2021/01/22 00:51:07;;;;;;;55.83;31.83;;;;;;;1.61;78.91;98798.30;120788;1150;103677;-81
2021/01/22 00:53:34;;;;;;;60.60;33.10;;;;;;;1.59;78.95;98806.05;120725;1151;104342;-81
2021/01/22 00:56:02;;;;;;;58.47;32.53;;;;;;;1.57;79.16;98805.23;120656;1151;104486;-81
2021/01/22 00:58:34;;;;;;;57.83;31.60;;;;;;;1.55;78.88;98809.55;120728;1151;104413;-81
2021/01/22 01:01:19;;;;;;;61.23;32.80;;;;;;;1.52;79.26;98796.77;120684;1150;104351;-81
2021/01/22 01:03:48;;;;;;;56.97;31.53;;;;;;;1.51;79.19;98797.65;120765;1151;104343;-81
2021/01/22 01:06:15;;;;;;;54.83;32.10;;;;;;;1.50;79.10;98795.95;120752;1150;104463;-81
2021/01/22 01:08:48;;;;;;;56.80;32.83;;;;;;;1.48;79.35;98793.42;120749;1150;104393;-81
2021/01/22 01:11:22;;;;;;;55.00;31.80;;;;;;;1.49;79.40;98799.41;120693;1150;104384;-81
2021/01/22 01:14:12;;;;;;;57.97;32.37;;;;;;;1.48;79.11;98802.84;120753;1150;105013;-81
2021/01/22 01:16:39;;;;;;;60.43;34.40;;;;;;;1.47;79.33;98796.86;120786;1150;104416;-82
2021/01/22 01:19:07;;;;;;;61.67;32.90;;;;;;;1.47;78.87;98802.00;120662;1151;104313;-82
2021/01/22 01:21:35;;;;;;;65.37;34.43;;;;;;;1.47;79.42;98799.44;120686;1151;104544;-82
2021/01/22 01:24:02;;;;;;;59.08;32.38;;;;;;;1.47;78.99;98793.45;120661;1151;104322;-82
2021/01/22 01:26:30;;;;;;;57.33;33.23;;;;;;;1.47;79.36;98790.88;120731;1151;104332;-81
2021/01/22 01:28:57;;;;;;;57.23;31.67;;;;;;;1.47;79.09;98788.31;120708;1150;104313;-81
2021/01/22 01:31:24;;;;;;;60.77;34.20;;;;;;;1.46;79.16;98790.03;120606;1150;104891;-81
2021/01/22 01:33:51;;;;;;;58.50;33.77;;;;;;;1.45;79.15;98787.50;120664;1151;104420;-81
2021/01/22 01:36:18;;;;;;;58.80;34.23;;;;;;;1.44;79.06;98788.38;120768;1150;104336;-81
2021/01/22 01:38:45;;;;;;;64.17;34.83;;;;;;;1.42;79.06;98780.67;120817;1150;104423;-82
2021/01/22 01:41:12;;;;;;;63.10;35.33;;;;;;;1.41;79.09;98770.42;120809;1151;103041;-81
2021/01/22 01:43:40;;;;;;;62.87;34.67;;;;;;;1.39;79.30;98787.59;120697;1150;104320;-82
2021/01/22 01:46:07;;;;;;;62.00;34.97;;;;;;;1.37;79.25;98782.48;120782;1149;104375;-82
2021/01/22 01:48:35;;;;;;;59.60;33.73;;;;;;;1.37;79.55;98787.63;120705;1150;102536;-82
2021/01/22 01:51:03;;;;;;;62.90;34.50;;;;;;;1.34;79.07;98774.84;120652;1150;104359;-82
2021/01/22 01:53:31;;;;;;;63.10;32.73;;;;;;;1.32;79.25;98775.75;120752;1149;104408;-82
2021/01/22 01:56:00;;;;;;;62.70;33.63;;;;;;;1.29;79.41;98779.22;120700;1150;104396;-82
2021/01/22 01:58:29;;;;;;;64.83;36.03;;;;;;;1.27;79.17;98785.27;120813;1149;104367;-82
2021/01/22 02:00:57;;;;;;;62.17;35.13;;;;;;;1.23;79.34;98763.05;120783;1150;104342;-81
2021/01/22 02:03:24;;;;;;;60.27;33.17;;;;;;;1.19;79.35;98769.98;120703;1150;104324;-81
2021/01/22 02:05:52;;;;;;;60.57;35.07;;;;;;;1.16;79.43;98770.03;120675;1150;104391;-81
2021/01/22 02:08:20;;;;;;;63.37;35.37;;;;;;;1.12;79.70;98768.41;120736;1150;104397;-81
2021/01/22 02:10:48;;;;;;;68.40;36.57;;;;;;;1.09;79.54;98774.45;120789;1150;104409;-82
2021/01/22 02:13:16;;;;;;;65.03;35.10;;;;;;;1.07;79.45;98768.46;120768;1150;104423;-82
2021/01/22 02:15:44;;;;;;;59.37;34.00;;;;;;;1.04;79.68;98773.66;120742;1151;104203;-82
2021/01/22 02:18:12;;;;;;;67.87;36.00;;;;;;;1.02;79.71;98754.87;120609;1150;104487;-81
2021/01/22 02:20:59;;;;;;;64.90;36.70;;;;;;;1.01;79.88;98766.02;120715;1150;104510;-82
2021/01/22 02:23:28;;;;;;;63.43;35.33;;;;;;;1.01;80.04;98753.17;120832;1149;104319;-82
2021/01/22 02:26:15;;;;;;;67.70;36.93;;;;;;;1.02;80.11;98747.16;120648;1151;104330;-82
2021/01/22 02:28:45;;;;;;;65.87;36.73;;;;;;;1.02;80.14;98754.87;120625;1148;104515;-81
2021/01/22 02:31:15;;;;;;;68.20;36.50;;;;;;;1.04;80.22;98754.84;120746;1150;104338;-81
2021/01/22 02:33:45;;;;;;;63.03;35.37;;;;;;;1.06;79.97;98737.68;120675;1149;104182;-81
2021/01/22 02:36:14;;;;;;;67.00;36.83;;;;;;;1.08;79.82;98728.26;120731;1150;104343;-81
2021/01/22 02:38:44;;;;;;;63.07;35.50;;;;;;;1.11;79.70;98736.75;120748;1150;104394;-81
2021/01/22 02:41:14;;;;;;;64.97;35.53;;;;;;;1.13;79.96;98740.12;120741;1150;104324;-81
2021/01/22 02:43:43;;;;;;;63.23;34.67;;;;;;;1.15;79.78;98738.38;120747;1150;104391;-82
2021/01/22 02:46:10;;;;;;;61.73;35.30;;;;;;;1.15;79.60;98738.38;120746;1151;104337;-82
2021/01/22 02:48:38;;;;;;;67.57;37.20;;;;;;;1.17;79.41;98746.05;120656;1150;104407;-82
2021/01/22 02:51:11;;;;;;;64.37;35.70;;;;;;;1.17;79.49;98734.06;120775;1150;104478;-82
2021/01/22 02:53:39;;;;;;;66.47;35.37;;;;;;;1.17;79.15;98728.08;120798;1151;104440;-82
2021/01/22 02:56:18;;;;;;;68.63;37.13;;;;;;;1.17;79.28;98739.19;120645;1151;104484;-82
2021/01/22 02:58:53;;;;;;;64.93;36.07;;;;;;;1.15;79.38;98728.11;120772;1150;104204;-82
2021/01/22 03:01:25;;;;;;;67.80;37.00;;;;;;;1.13;79.21;98719.59;120731;1150;104301;-82
2021/01/22 03:04:02;;;;;;;64.07;36.73;;;;;;;1.11;79.43;98717.92;120720;1150;104417;-82
2021/01/22 03:06:37;;;;;;;66.90;36.17;;;;;;;1.09;79.24;98715.39;120785;1150;104351;-82
2021/01/22 03:09:06;;;;;;;63.20;35.93;;;;;;;1.07;79.31;98714.55;120694;1150;104837;-82
2021/01/22 03:11:35;;;;;;;61.33;34.40;;;;;;;1.06;79.63;98697.45;120732;1150;104359;-82
2021/01/22 03:14:04;;;;;;;63.43;35.80;;;;;;;1.04;79.67;98699.20;120706;1150;104418;-82
2021/01/22 03:16:33;;;;;;;62.63;35.13;;;;;;;1.03;79.63;98687.24;120738;1151;104326;-81
2021/01/22 03:19:03;;;;;;;63.87;36.30;;;;;;;1.02;79.34;98684.70;120783;1150;104340;-81
2021/01/22 03:21:31;;;;;;;63.67;34.90;;;;;;;1.00;79.51;98679.60;120768;1150;104265;-81
2021/01/22 03:23:59;;;;;;;60.47;34.90;;;;;;;0.99;79.38;98685.61;120753;1151;104439;-81
2021/01/22 03:26:26;;;;;;;61.07;34.90;;;;;;;0.99;79.38;98675.34;120595;1151;104394;-82
2021/01/22 03:28:53;;;;;;;62.90;37.00;;;;;;;0.98;79.52;98673.66;120765;1150;104839;-82
2021/01/22 03:31:20;;;;;;;62.13;34.40;;;;;;;0.98;79.52;98667.67;120790;1150;104542;-82
2021/01/22 03:33:48;;;;;;;64.47;35.73;;;;;;;0.97;79.83;98665.98;120716;1150;104354;-81
2021/01/22 03:36:17;;;;;;;62.17;35.27;;;;;;;0.97;79.82;98661.70;120747;1150;104416;-81
2021/01/22 03:38:44;;;;;;;59.33;34.67;;;;;;;0.97;79.56;98665.98;120674;1150;104335;-81
2021/01/22 03:41:11;;;;;;;59.95;34.45;;;;;;;0.96;79.52;98667.70;120716;1150;104313;-81
2021/01/22 03:43:38;;;;;;;61.37;34.20;;;;;;;0.96;80.08;98665.14;120756;1150;104324;-81
2021/01/22 03:46:05;;;;;;;64.83;35.47;;;;;;;0.95;79.44;98662.61;120736;1150;104468;-81
2021/01/22 03:48:33;;;;;;;61.50;33.50;;;;;;;0.95;79.82;98671.16;120638;1150;104384;-81
2021/01/22 03:51:01;;;;;;;62.00;34.70;;;;;;;0.96;79.84;98660.00;120651;1150;104386;-81
2021/01/22 03:53:28;;;;;;;61.37;33.37;;;;;;;0.96;79.51;98654.03;120607;1151;104812;-81
2021/01/22 03:55:55;;;;;;;56.80;31.73;;;;;;;0.96;79.99;98654.03;120775;1150;104367;-81
2021/01/22 03:58:22;;;;;;;56.37;33.27;;;;;;;0.96;79.89;98648.89;120617;1151;104471;-81
2021/01/22 04:00:49;;;;;;;56.13;31.60;;;;;;;0.97;79.58;98648.86;120732;1151;104542;-81
2021/01/22 04:03:16;;;;;;;58.37;31.90;;;;;;;0.98;79.59;98647.98;120880;1150;104319;-81
2021/01/22 04:05:44;;;;;;;52.85;30.95;;;;;;;1.00;79.63;98650.52;120831;1150;104373;-82
2021/01/22 04:08:11;;;;;;;54.67;31.77;;;;;;;1.00;79.79;98635.96;120665;1150;104437;-81
2021/01/22 04:10:38;;;;;;;57.70;31.37;;;;;;;1.02;79.72;98629.08;120689;1150;104231;-82
2021/01/22 04:13:05;;;;;;;49.70;31.17;;;;;;;1.02;79.70;98630.80;120654;1151;104819;-82
2021/01/22 04:15:32;;;;;;;52.95;30.50;;;;;;;1.03;79.82;98635.89;120676;1151;104468;-81
2021/01/22 04:17:59;;;;;;;47.23;28.50;;;;;;;1.04;79.46;98622.19;120787;1150;104334;-81
2021/01/22 04:20:28;;;;;;;52.63;29.47;;;;;;;1.06;79.66;98630.70;120701;1150;104509;-82
2021/01/22 04:22:55;;;;;;;55.63;30.13;;;;;;;1.05;79.37;98629.00;120555;1151;104297;-82
2021/01/22 04:25:22;;;;;;;45.63;29.83;;;;;;;1.05;79.19;98623.88;120581;1149;104392;-81
2021/01/22 04:27:49;;;;;;;49.80;29.63;;;;;;;1.07;79.40;98634.11;120798;1150;104414;-81
2021/01/22 04:30:16;;;;;;;54.77;30.33;;;;;;;1.05;79.27;98621.30;120721;1150;104339;-82
2021/01/22 04:32:43;;;;;;;50.70;29.07;;;;;;;1.06;79.48;98614.45;120590;1151;104350;-82
2021/01/22 04:35:14;;;;;;;51.00;28.67;;;;;;;1.06;79.50;98625.56;120666;1151;104243;-81
2021/01/22 04:37:41;;;;;;;48.77;28.67;;;;;;;1.05;79.41;98616.17;120763;1149;104442;-82
2021/01/22 04:40:11;;;;;;;52.90;28.90;;;;;;;1.07;79.23;98611.84;120671;1151;104841;-82
2021/01/22 04:42:43;;;;;;;46.77;28.07;;;;;;;1.07;79.62;98596.44;120614;1151;104458;-82
2021/01/22 04:45:12;;;;;;;48.77;28.73;;;;;;;1.07;79.60;98593.88;120668;1151;104345;-81
2021/01/22 04:47:41;;;;;;;48.43;28.23;;;;;;;1.07;79.57;98601.58;120635;1151;104322;-82
2021/01/22 04:50:11;;;;;;;51.03;29.00;;;;;;;1.07;79.36;98601.58;120750;1150;101845;-82
2021/01/22 04:52:39;;;;;;;51.57;28.40;;;;;;;1.06;79.15;98599.05;120666;1150;104812;-82
2021/01/22 04:55:13;;;;;;;45.13;26.80;;;;;;;1.06;79.40;98602.45;120656;1151;104485;-82
2021/01/22 04:57:43;;;;;;;48.23;27.00;;;;;;;1.07;79.55;98599.02;120647;1150;104480;-82
2021/01/22 05:00:14;;;;;;;41.90;25.83;;;;;;;1.09;79.47;98602.42;120655;1151;104430;-81
2021/01/22 05:02:42;;;;;;;46.57;26.50;;;;;;;1.09;79.47;98592.16;120629;1151;104378;-81
2021/01/22 05:05:09;;;;;;;47.17;26.77;;;;;;;1.11;79.46;98582.69;120725;1151;104412;-81
2021/01/22 05:07:37;;;;;;;43.70;26.63;;;;;;;1.11;79.35;98587.83;120757;1151;104451;-81
2021/01/22 05:10:05;;;;;;;46.77;27.17;;;;;;;1.13;79.17;98580.94;120679;1150;104774;-81
2021/01/22 05:12:37;;;;;;;46.23;26.53;;;;;;;1.12;79.21;98570.70;120735;1150;104483;-81
2021/01/22 05:15:14;;;;;;;45.27;27.27;;;;;;;1.11;79.41;98567.28;120727;1150;104792;-81
2021/01/22 05:18:02;;;;;;;45.07;26.30;;;;;;;1.12;79.24;98566.41;120745;1150;105907;-80
2021/01/22 05:20:36;;;;;;;47.83;26.00;;;;;;;1.12;79.35;98561.27;120695;1151;104886;-81
2021/01/22 05:23:08;;;;;;;41.80;24.73;;;;;;;1.11;79.34;98551.88;120746;1150;104277;-81
2021/01/22 05:25:58;;;;;;;39.20;23.27;;;;;;;1.12;79.58;98574.11;120694;1151;104436;-81
2021/01/22 05:28:35;;;;;;;41.13;23.53;;;;;;;1.14;79.54;98574.92;120755;1151;104486;-82
2021/01/22 05:31:03;;;;;;;42.60;24.00;;;;;;;1.12;79.48;98580.97;120750;1150;104388;-82
2021/01/22 05:33:30;;;;;;;43.03;23.20;;;;;;;1.12;79.35;98584.37;120650;1150;104778;-82
2021/01/22 05:35:58;;;;;;;41.17;22.53;;;;;;;1.14;79.37;98592.05;120660;1150;104371;-82
2021/01/22 05:38:39;;;;;;;36.47;20.97;;;;;;;1.16;79.21;98580.02;120695;1151;104326;-82
2021/01/22 05:41:07;;;;;;;40.03;22.67;;;;;;;1.18;79.74;98586.81;120682;1150;104622;-82
2021/01/22 05:43:36;;;;;;;43.63;24.80;;;;;;;1.20;79.54;98586.77;120676;1151;104421;-81
2021/01/22 05:46:15;;;;;;;40.57;22.37;;;;;;;1.21;79.44;98588.47;120729;1149;104441;-81
2021/01/22 05:48:43;;;;;;;46.70;25.30;;;;;;;1.21;79.39;98594.44;120673;1149;104474;-81
2021/01/22 05:51:14;;;;;;;40.10;24.67;;;;;;;1.21;79.28;98589.30;120691;1148;104362;-81
2021/01/22 05:53:48;;;;;;;45.10;23.67;;;;;;;1.21;79.35;98589.30;120671;1150;104301;-82
2021/01/22 05:56:17;;;;;;;42.77;24.40;;;;;;;1.21;79.44;98579.03;120800;1148;104358;-82
2021/01/22 05:58:46;;;;;;;43.37;23.80;;;;;;;1.20;79.31;98586.77;120695;1150;104343;-82
2021/01/22 06:01:15;;;;;;;42.87;23.40;;;;;;;1.20;79.42;98582.48;120737;1150;104415;-82
2021/01/22 06:03:48;;;;;;;40.90;23.33;;;;;;;1.19;79.57;98583.36;120799;1148;104188;-81
2021/01/22 06:06:17;;;;;;;35.83;22.67;;;;;;;1.18;79.23;98584.24;120747;1150;104417;-81
2021/01/22 06:08:55;;;;;;;39.03;22.77;;;;;;;1.19;79.54;98582.52;120736;1150;104477;-82
2021/01/22 06:11:25;;;;;;;43.17;25.77;;;;;;;1.18;79.25;98581.67;120648;1148;104997;-81
2021/01/22 06:13:57;;;;;;;45.90;26.13;;;;;;;1.17;79.54;98579.98;120808;1148;104229;-81
2021/01/22 06:16:27;;;;;;;40.50;24.50;;;;;;;1.18;79.82;98579.11;120768;1148;102532;-81
2021/01/22 06:19:04;;;;;;;41.50;24.13;;;;;;;1.20;79.49;98587.62;120736;1148;104262;-82
2021/01/22 06:21:37;;;;;;;45.80;24.73;;;;;;;1.24;79.87;98579.84;120822;1148;104399;-81
2021/01/22 06:24:06;;;;;;;40.97;23.27;;;;;;;1.26;79.82;98578.09;120730;1148;104915;-81
2021/01/22 06:26:39;;;;;;;38.90;23.13;;;;;;;1.28;79.58;98574.64;120776;1148;104902;-81
2021/01/22 06:29:09;;;;;;;38.83;23.03;;;;;;;1.31;79.51;98573.72;120773;1148;104431;-82
2021/01/22 06:31:41;;;;;;;39.07;21.97;;;;;;;1.34;79.63;98578.78;120804;1148;104291;-82
2021/01/22 06:34:11;;;;;;;37.80;22.47;;;;;;;1.37;79.50;98578.71;120788;1150;102167;-82
2021/01/22 06:36:42;;;;;;;35.90;22.80;;;;;;;1.42;79.46;98574.31;120666;1151;104316;-82
2021/01/22 06:39:10;;;;;;;35.93;21.07;;;;;;;1.46;79.54;98570.82;120740;1150;104345;-82
2021/01/22 06:41:38;;;;;;;37.67;21.57;;;;;;;1.49;79.65;98587.00;120729;1148;104395;-82
2021/01/22 06:44:06;;;;;;;36.90;20.97;;;;;;;1.53;79.51;98577.50;120717;1150;104369;-81
2021/01/22 06:46:34;;;;;;;34.27;20.07;;;;;;;1.57;79.34;98576.55;120736;1148;104447;-82
2021/01/22 06:49:04;;;;;;;36.37;21.63;;;;;;;1.61;79.31;98582.45;120763;1149;103260;-82
2021/01/22 06:51:34;;;;;;;37.13;21.30;;;;;;;1.64;79.37;98575.55;120574;1150;104310;-82
2021/01/22 06:54:08;;;;;;;37.67;20.83;;;;;;;1.67;79.06;98592.61;120776;1148;104230;-82
2021/01/22 06:56:38;;;;;;;33.07;20.07;;;;;;;1.71;79.59;98584.80;120604;1148;104384;-82
2021/01/22 06:59:22;;;;;;;34.63;20.47;;;;;;;1.77;79.20;98584.64;120772;1149;104282;-81
2021/01/22 07:01:50;;;;;;;35.43;20.40;;;;;;;1.80;79.00;98584.59;120684;1148;104449;-81
2021/01/22 07:04:33;;;;;;;32.67;19.07;;;;;;;1.84;79.13;98585.36;120670;1151;104590;-81
2021/01/22 07:07:03;;;;;;;36.43;19.13;;;;;;;1.88;78.99;98578.41;120652;1151;104483;-80
2021/01/22 07:09:44;;;;;;;32.73;18.63;;;;;;;1.92;78.93;98578.30;120719;1148;104391;-80
2021/01/22 07:12:13;;;;;;;31.60;18.07;;;;;;;1.99;78.78;98573.88;120699;1150;104408;-81
2021/01/22 07:14:48;;;;;;;33.07;18.23;;;;;;;2.04;78.73;98567.73;120701;1150;104803;-81
2021/01/22 07:17:20;;;;;;;32.50;18.20;;;;;;;2.10;78.50;98564.14;120657;1148;104246;-80
2021/01/22 07:19:54;;;;;;;30.00;18.90;;;;;;;2.16;78.76;98556.30;120712;1148;104343;-81
2021/01/22 07:22:21;;;;;;;35.10;19.10;;;;;;;2.20;78.32;98552.77;120653;1150;104281;-80
2021/01/22 07:24:51;;;;;;;37.30;19.03;;;;;;;2.26;78.17;98550.02;120706;1148;101927;-80
2021/01/22 07:27:19;;;;;;;32.25;17.90;;;;;;;2.30;78.43;98543.91;120611;1150;103084;-80
2021/01/22 07:30:15;;;;;;;33.57;18.93;;;;;;;2.35;77.99;98542.08;120581;1148;104335;-80
2021/01/22 07:32:45;;;;;;;32.17;18.63;;;;;;;2.41;78.01;98541.06;120522;1148;104340;-79
2021/01/22 07:35:23;;;;;;;33.53;18.93;;;;;;;2.46;77.89;98528.06;120623;1148;104425;-79
2021/01/22 07:37:52;;;;;;;29.97;17.17;;;;;;;2.53;77.65;98529.61;120637;1150;104390;-81
2021/01/22 07:40:20;;;;;;;33.33;19.50;;;;;;;2.59;77.58;98527.70;120620;1150;104401;-81
2021/01/22 07:42:47;;;;;;;30.80;18.83;;;;;;;2.68;77.17;98531.73;120543;1151;104341;-80
2021/01/22 07:45:17;;;;;;;33.97;18.73;;;;;;;2.76;77.29;98529.81;120679;1151;104403;-81
2021/01/22 07:47:47;;;;;;;29.73;17.50;;;;;;;2.84;77.12;98525.27;120709;1150;102821;-82
2021/01/22 07:50:22;;;;;;;31.20;17.83;;;;;;;2.92;77.08;98520.77;120787;1150;104863;-81
2021/01/22 07:52:49;;;;;;;27.70;16.80;;;;;;;3.01;76.77;98512.76;120667;1150;104357;-81
2021/01/22 07:55:22;;;;;;;31.30;18.37;;;;;;;3.11;76.47;98526.22;120571;1151;104472;-81
2021/01/22 07:58:05;;;;;;;28.83;17.73;;;;;;;3.30;75.95;98513.63;120702;1150;104320;-81
2021/01/22 08:00:38;;;;;;;29.80;17.40;;;;;;;3.50;75.95;98520.75;120733;1150;104410;-81
2021/01/22 08:03:05;;;;;;;29.23;17.17;;;;;;;3.63;75.55;98511.75;120615;1151;104313;-81
2021/01/22 08:05:34;;;;;;;30.60;17.23;;;;;;;3.74;75.13;98504.49;120727;1150;104419;-81
2021/01/22 08:08:17;;;;;;;26.60;16.67;;;;;;;3.88;74.27;98504.89;120650;1150;105851;-80
2021/01/22 08:10:45;;;;;;;31.00;16.77;;;;;;;4.12;73.95;98505.80;120619;1150;104569;-80
2021/01/22 08:13:12;;;;;;;24.77;15.20;;;;;;;4.39;74.04;98493.70;120701;1150;104754;-80
2021/01/22 08:15:39;;;;;;;28.00;16.80;;;;;;;4.70;72.41;98488.30;120690;1151;104358;-80
2021/01/22 08:18:07;;;;;;;28.40;15.63;;;;;;;4.90;71.78;98494.47;120691;1150;104479;-81
2021/01/22 08:20:34;;;;;;;24.20;15.10;;;;;;;5.00;71.93;98477.70;120576;1151;104487;-81
2021/01/22 08:23:02;;;;;;;27.00;16.47;;;;;;;5.03;71.41;98495.70;120713;1150;104311;-82
2021/01/22 08:25:31;;;;;;;30.65;17.65;;;;;;;5.01;70.71;98484.55;120734;1151;104340;-81
2021/01/22 08:28:06;;;;;;;31.90;17.23;;;;;;;4.98;71.44;98476.92;120732;1150;104300;-81
2021/01/22 08:30:35;;;;;;;26.93;16.37;;;;;;;4.97;70.73;98489.00;120678;1151;104378;-80
2021/01/22 08:33:06;;;;;;;29.03;16.77;;;;;;;4.97;71.51;98477.83;120653;1151;104182;-81
2021/01/22 08:35:36;;;;;;;23.70;15.13;;;;;;;4.95;70.44;98484.80;120671;1151;104366;-81
2021/01/22 08:38:04;;;;;;;26.70;16.30;;;;;;;4.92;71.18;98487.50;120740;1150;104440;-81
2021/01/22 08:40:40;;;;;;;25.27;16.17;;;;;;;4.88;70.56;98479.03;120627;1151;104314;-82
2021/01/22 08:43:09;;;;;;;30.13;16.47;;;;;;;4.86;70.85;98493.75;120743;1150;104416;-80
2021/01/22 08:45:38;;;;;;;28.07;16.37;;;;;;;4.81;71.43;98470.64;120825;1151;104338;-82
2021/01/22 08:48:06;;;;;;;27.33;15.83;;;;;;;4.79;71.85;98482.78;120833;1150;104393;-82
2021/01/22 08:50:33;;;;;;;29.30;16.90;;;;;;;4.77;71.55;98465.66;120772;1150;104370;-82
2021/01/22 08:53:06;;;;;;;25.75;15.45;;;;;;;4.72;71.72;98483.91;120794;1150;104487;-80
2021/01/22 08:55:33;;;;;;;25.17;16.53;;;;;;;4.71;71.31;98483.97;120768;1150;104358;-80
2021/01/22 08:58:09;;;;;;;32.80;16.80;;;;;;;4.72;71.73;98478.75;120714;1151;104593;-80
2021/01/22 09:00:38;;;;;;;21.87;15.13;;;;;;;4.75;71.90;98482.95;120821;1149;104669;-81
2021/01/22 09:03:22;;;;;;;26.70;15.77;;;;;;;4.83;72.21;98479.17;120732;1150;102029;-81
2021/01/22 09:05:50;;;;;;;28.30;15.80;;;;;;;5.00;71.59;98462.20;120810;1150;104415;-81
2021/01/22 09:08:19;;;;;;;30.70;16.43;;;;;;;5.32;71.63;98468.72;120874;1150;104459;-81
2021/01/22 09:10:46;;;;;;;28.47;17.60;;;;;;;5.65;70.04;98469.13;120725;1150;104365;-81
2021/01/22 09:13:23;;;;;;;29.17;17.60;;;;;;;6.05;69.44;98464.02;120857;1150;104420;-81
2021/01/22 09:16:03;;;;;;;26.50;16.55;;;;;;;6.45;67.69;98467.48;120817;1150;104336;-82
2021/01/22 09:18:31;;;;;;;26.60;15.90;;;;;;;6.74;67.65;98454.99;120793;1150;104435;-81
2021/01/22 09:21:00;;;;;;;25.30;16.90;;;;;;;6.87;67.38;98464.74;120709;1150;104396;-81
2021/01/22 09:23:29;;;;;;;24.97;16.53;;;;;;;6.88;66.68;98439.67;120768;1150;104422;-81
2021/01/22 09:25:57;;;;;;;26.50;16.57;;;;;;;6.70;65.90;98430.98;120671;1150;104487;-80
2021/01/22 09:28:24;;;;;;;29.20;16.87;;;;;;;6.69;66.95;98428.47;120715;1151;103106;-82
2021/01/22 09:30:51;;;;;;;26.20;16.20;;;;;;;6.63;66.83;98435.58;120797;1150;104985;-81
2021/01/22 09:33:19;;;;;;;32.83;17.37;;;;;;;6.62;66.53;98436.48;120693;1151;104351;-82
2021/01/22 09:35:46;;;;;;;27.42;17.32;;;;;;;6.55;66.33;98424.73;120779;1150;104474;-82
2021/01/22 09:38:13;;;;;;;26.63;17.33;;;;;;;6.56;66.45;98421.23;120707;1151;104444;-81
2021/01/22 09:40:40;;;;;;;27.27;16.57;;;;;;;6.79;66.09;98424.53;120708;1150;104339;-81
2021/01/22 09:43:07;;;;;;;22.07;15.27;;;;;;;7.04;65.37;98409.54;120758;1148;104409;-81
2021/01/22 09:45:34;;;;;;;24.93;16.00;;;;;;;7.15;65.09;98402.08;120804;1150;104830;-81
2021/01/22 09:48:02;;;;;;;24.10;16.23;;;;;;;7.18;64.72;98412.33;120667;1150;104352;-81
2021/01/22 09:50:30;;;;;;;25.80;16.20;;;;;;;7.24;65.71;98414.62;120788;1150;104445;-81
2021/01/22 09:52:57;;;;;;;23.70;16.10;;;;;;;7.20;65.21;98405.31;120835;1151;102447;-81
2021/01/22 09:55:25;;;;;;;23.97;16.17;;;;;;;7.26;65.03;98414.54;120646;1151;104459;-81
2021/01/22 09:57:52;;;;;;;24.43;15.80;;;;;;;7.22;65.37;98402.64;120710;1150;104489;-81
2021/01/22 10:00:20;;;;;;;22.43;15.70;;;;;;;7.14;65.22;98407.34;120657;1150;103179;-81
2021/01/22 10:02:47;;;;;;;25.33;17.20;;;;;;;7.06;65.65;98397.34;120776;1150;104365;-81
2021/01/22 10:05:14;;;;;;;24.90;16.27;;;;;;;7.11;65.70;98387.59;120835;1150;104439;-82
2021/01/22 10:07:42;;;;;;;24.40;16.00;;;;;;;7.35;65.35;98408.89;120838;1150;104324;-81
2021/01/22 10:10:10;;;;;;;28.03;16.13;;;;;;;7.57;64.20;98419.09;120600;1150;104334;-81
2021/01/22 10:12:38;;;;;;;27.97;16.53;;;;;;;7.85;65.05;98383.05;120666;1150;104308;-81
2021/01/22 10:15:06;;;;;;;24.10;16.10;;;;;;;8.06;64.34;98377.67;120624;1150;102599;-81
2021/01/22 10:17:34;;;;;;;24.43;16.17;;;;;;;8.11;63.47;98373.11;120686;1150;104414;-82
2021/01/22 10:20:02;;;;;;;21.33;16.00;;;;;;;8.01;63.49;98356.31;120687;1151;104511;-82
2021/01/22 10:22:29;;;;;;;24.37;16.07;;;;;;;7.83;62.50;98369.31;120710;1151;104428;-81
2021/01/22 10:24:57;;;;;;;25.17;16.93;;;;;;;7.65;63.37;98372.84;120744;1151;104337;-81
2021/01/22 10:27:24;;;;;;;21.20;14.67;;;;;;;7.49;64.43;98403.05;120762;1150;104387;-81
2021/01/22 10:29:51;;;;;;;24.07;15.80;;;;;;;7.33;63.81;98389.14;120682;1151;104320;-81
2021/01/22 10:32:18;;;;;;;24.03;15.93;;;;;;;7.32;64.55;98366.72;120830;1151;104353;-81
2021/01/22 10:34:46;;;;;;;23.63;15.20;;;;;;;7.38;65.09;98363.84;120775;1150;104862;-81
2021/01/22 10:37:13;;;;;;;22.70;16.07;;;;;;;7.28;64.78;98359.09;120719;1150;104314;-82
2021/01/22 10:39:41;;;;;;;27.53;15.97;;;;;;;7.13;64.83;98348.63;120740;1150;102289;-82
2021/01/22 10:42:08;;;;;;;25.67;16.20;;;;;;;7.01;65.23;98347.48;120807;1150;106637;-82
2021/01/22 10:44:35;;;;;;;25.83;15.53;;;;;;;6.88;65.15;98356.74;120654;1150;104364;-79
2021/01/22 10:47:02;;;;;;;25.37;16.60;;;;;;;6.77;65.96;98333.08;120508;1150;104198;-79
2021/01/22 10:49:30;;;;;;;24.83;16.80;;;;;;;6.74;66.22;98325.45;120552;1150;104389;-79
2021/01/22 10:51:57;;;;;;;25.37;16.20;;;;;;;6.76;66.88;98336.58;120558;1150;104417;-79
2021/01/22 10:54:24;;;;;;;24.57;15.60;;;;;;;6.78;67.15;98337.34;120528;1150;104455;-78
2021/01/22 10:56:51;;;;;;;23.70;15.77;;;;;;;6.85;66.60;98333.58;120448;1150;104471;-79
2021/01/22 10:59:18;;;;;;;20.20;15.10;;;;;;;6.84;66.45;98329.30;120574;1150;104466;-79
2021/01/22 11:01:46;;;;;;;25.37;16.00;;;;;;;6.77;66.63;98313.19;120558;1150;104337;-79
2021/01/22 11:04:13;;;;;;;25.90;16.70;;;;;;;6.72;66.44;98319.52;120504;1151;104389;-79
2021/01/22 11:06:41;;;;;;;27.02;16.57;;;;;;;6.63;67.16;98331.13;120512;1150;104378;-79
2021/01/22 11:09:08;;;;;;;24.70;15.97;;;;;;;6.56;67.43;98309.86;120576;1150;103068;-79
2021/01/22 11:11:35;;;;;;;25.40;15.17;;;;;;;6.48;67.51;98317.16;120559;1150;104613;-79
2021/01/22 11:14:02;;;;;;;24.63;15.97;;;;;;;6.43;67.49;98297.55;120493;1150;104323;-79
2021/01/22 11:16:29;;;;;;;29.47;16.03;;;;;;;6.39;68.33;98325.34;120551;1150;103108;-78
2021/01/22 11:18:56;;;;;;;25.87;15.97;;;;;;;6.40;68.28;98321.00;120511;1150;104434;-80
2021/01/22 11:21:24;;;;;;;24.07;14.67;;;;;;;6.38;68.42;98305.54;120519;1150;104395;-79
2021/01/22 11:23:51;;;;;;;26.47;15.53;;;;;;;6.42;68.83;98317.42;120599;1149;104386;-79